createdAt,value
2018-09-13T00:00:06.889Z,0.0
2018-09-13T00:10:18.195Z,0.0
2018-09-13T00:20:32.398Z,0.0
2018-09-13T00:30:46.449Z,0.0
2018-09-13T00:41:00.924Z,0.0
2018-09-13T00:51:14.889Z,0.0
2018-09-13T01:01:29.219Z,0.0
2018-09-13T01:11:43.292Z,0.0
2018-09-13T01:21:57.543Z,0.0
2018-09-13T01:32:42.952Z,0.0
2018-09-13T01:42:56.341Z,0.0
2018-09-13T01:53:10.028Z,0.0
2018-09-13T02:03:23.877Z,0.0
2018-09-13T02:13:37.260Z,0.0
2018-09-13T02:24:23.016Z,0.0
2018-09-13T02:34:34.322Z,0.0
2018-09-13T02:44:48.525Z,0.0
2018-09-13T02:55:34.117Z,0.0
2018-09-13T03:05:47.504Z,0.0
2018-09-13T03:16:01.707Z,0.0
2018-09-13T03:26:47.566Z,0.0
2018-09-13T03:37:00.983Z,0.0
2018-09-13T03:47:47.522Z,0.0
2018-09-13T03:58:01.027Z,0.0
2018-09-13T04:08:15.271Z,0.0
2018-09-13T04:19:30.528Z,0.0
2018-09-13T04:29:44.491Z,0.0
2018-09-13T04:39:57.672Z,0.0
2018-09-13T04:50:10.772Z,12.0
2018-09-13T05:00:24.496Z,40.0
2018-09-13T05:10:35.477Z,100.0
2018-09-13T05:20:48.681Z,192.0
2018-09-13T05:31:02.082Z,344.0
2018-09-13T05:41:15.972Z,668.0
2018-09-13T05:51:29.437Z,992.0
2018-09-13T06:02:14.896Z,1500.0
2018-09-13T06:12:28.528Z,2188.0
2018-09-13T06:22:42.962Z,2964.0
2018-09-13T06:32:54.878Z,3664.0
2018-09-13T06:43:08.808Z,4848.0
2018-09-13T06:53:22.165Z,5712.0
2018-09-13T07:03:37.284Z,6228.0
2018-09-13T07:13:48.629Z,7172.0
2018-09-13T07:24:03.098Z,14688.0
2018-09-13T07:34:16.907Z,14880.0
2018-09-13T07:44:31.012Z,32288.0
2018-09-13T07:54:44.091Z,35584.0
2018-09-13T08:04:57.687Z,20704.0
2018-09-13T08:15:08.831Z,31520.0
2018-09-13T08:25:23.078Z,24576.0
2018-09-13T08:35:36.960Z,38592.0
2018-09-13T08:45:50.464Z,56960.0
2018-09-13T08:56:35.954Z,60128.0
2018-09-13T09:06:49.065Z,59232.0
2018-09-13T09:17:02.199Z,64256.0
2018-09-13T09:27:15.190Z,69568.0
2018-09-13T09:37:28.443Z,68864.0
2018-09-13T09:47:41.958Z,72608.0
2018-09-13T09:57:53.040Z,73280.0
2018-09-13T10:08:37.961Z,73664.0
2018-09-13T10:18:51.164Z,81952.0
2018-09-13T10:29:21.560Z,16672.0
2018-09-13T10:39:39.362Z,9816.0
2018-09-13T10:49:53.197Z,44160.0
2018-09-13T11:00:06.977Z,103808.0
2018-09-13T11:10:20.577Z,10940.0
2018-09-13T11:21:05.806Z,10732.0
2018-09-13T11:31:19.706Z,81952.0
2018-09-13T11:41:33.452Z,43904.0
2018-09-13T11:51:47.096Z,15260.0
2018-09-13T12:02:01.269Z,16416.0
2018-09-13T12:12:46.688Z,78880.0
2018-09-13T12:23:00.456Z,72352.0
2018-09-13T12:33:14.163Z,72640.0
2018-09-13T12:43:27.605Z,73696.0
2018-09-13T12:53:41.797Z,77312.0
2018-09-13T13:03:55.973Z,76352.0
2018-09-13T13:14:10.603Z,9728.0
2018-09-13T13:24:24.669Z,68256.0
2018-09-13T13:34:38.937Z,18400.0
2018-09-13T13:45:06.857Z,10380.0
2018-09-13T13:56:25.853Z,8436.0
2018-09-13T14:06:40.009Z,9780.0
2018-09-13T14:16:54.763Z,24576.0
2018-09-13T14:27:08.227Z,24256.0
2018-09-13T14:58:34.144Z,57440.0
2018-09-13T15:09:31.973Z,31904.0
2018-09-13T15:19:52.815Z,11908.0
2018-09-13T15:31:17.897Z,6424.0
2018-09-13T15:52:31.018Z,5196.0
2018-09-13T16:02:45.574Z,5340.0
2018-09-13T16:12:59.979Z,5228.0
2018-09-13T16:24:31.520Z,4476.0
2018-09-13T16:35:17.101Z,3668.0
2018-09-13T16:46:06.112Z,2892.0
2018-09-13T16:56:20.021Z,2284.0
2018-09-13T17:07:07.965Z,1812.0
2018-09-13T17:17:22.968Z,1356.0
2018-09-13T17:27:51.151Z,948.0
2018-09-13T17:38:05.892Z,572.0
2018-09-13T17:48:27.187Z,276.0
2018-09-13T17:58:40.600Z,92.0
2018-09-13T18:08:54.853Z,20.0
2018-09-13T18:19:09.466Z,0.0
2018-09-13T18:30:00.052Z,0.0
2018-09-13T18:40:53.364Z,0.0
2018-09-13T18:51:09.999Z,0.0
2018-09-13T19:02:16.149Z,0.0
2018-09-13T19:12:49.279Z,0.0
2018-09-13T19:23:07.891Z,0.0
2018-09-13T19:33:59.822Z,0.0
2018-09-13T19:44:15.942Z,0.0
2018-09-13T19:55:05.243Z,0.0
2018-09-13T20:05:19.123Z,0.0
2018-09-13T20:15:42.656Z,0.0
2018-09-13T20:25:57.940Z,0.0
2018-09-13T20:36:42.944Z,0.0
2018-09-13T20:47:43.178Z,0.0
2018-09-13T20:57:57.534Z,0.0
2018-09-13T21:08:11.846Z,0.0
2018-09-13T21:18:35.330Z,0.0
2018-09-13T21:28:48.843Z,0.0
2018-09-13T21:39:12.529Z,0.0
2018-09-13T21:49:26.351Z,0.0
2018-09-13T21:59:40.336Z,0.0
2018-09-13T22:09:51.850Z,0.0
2018-09-13T22:20:43.356Z,0.0
2018-09-13T22:30:57.237Z,0.0
2018-09-13T22:41:42.829Z,0.0
2018-09-13T22:51:54.278Z,0.0
2018-09-13T23:02:09.392Z,0.0
2018-09-13T23:12:23.538Z,0.0
2018-09-13T23:22:37.628Z,0.0
2018-09-13T23:32:51.738Z,0.0
2018-09-13T23:43:04.998Z,0.0
2018-09-13T23:53:25.118Z,0.0
